sensor_id;sensor_type;location;lat;lon;timestamp;temperature;humidity
983;DHT22;480;48.124;11.578;2022-07-23T00:00:16;25.10;99.90
983;DHT22;480;48.124;11.578;2022-07-23T00:02:44;25.10;99.90
983;DHT22;480;48.124;11.578;2022-07-23T00:05:11;25.20;99.90
983;DHT22;480;48.124;11.578;2022-07-23T00:07:39;25.20;99.90
983;DHT22;480;48.124;11.578;2022-07-23T00:10:07;25.20;99.90
983;DHT22;480;48.124;11.578;2022-07-23T00:12:34;25.30;99.90
983;DHT22;480;48.124;11.578;2022-07-23T00:15:02;25.30;99.90
983;DHT22;480;48.124;11.578;2022-07-23T00:17:29;25.40;99.90
983;DHT22;480;48.124;11.578;2022-07-23T00:19:57;25.40;99.90
983;DHT22;480;48.124;11.578;2022-07-23T00:22:24;25.30;99.90
983;DHT22;480;48.124;11.578;2022-07-23T00:24:51;25.50;99.90
983;DHT22;480;48.124;11.578;2022-07-23T00:27:20;25.50;99.90
983;DHT22;480;48.124;11.578;2022-07-23T00:29:47;25.60;99.90
983;DHT22;480;48.124;11.578;2022-07-23T00:32:14;25.30;99.90
983;DHT22;480;48.124;11.578;2022-07-23T00:34:41;25.40;99.90
983;DHT22;480;48.124;11.578;2022-07-23T00:37:09;25.30;99.90
983;DHT22;480;48.124;11.578;2022-07-23T00:39:36;25.30;99.90
983;DHT22;480;48.124;11.578;2022-07-23T00:42:04;25.30;99.90
983;DHT22;480;48.124;11.578;2022-07-23T00:44:31;25.20;99.90
983;DHT22;480;48.124;11.578;2022-07-23T00:46:58;25.20;99.90
983;DHT22;480;48.124;11.578;2022-07-23T00:49:27;25.20;99.90
983;DHT22;480;48.124;11.578;2022-07-23T00:51:56;25.10;99.90
983;DHT22;480;48.124;11.578;2022-07-23T00:54:26;25.10;99.90
983;DHT22;480;48.124;11.578;2022-07-23T00:56:54;25.10;99.90
983;DHT22;480;48.124;11.578;2022-07-23T00:59:22;25.10;99.90
983;DHT22;480;48.124;11.578;2022-07-23T01:01:49;25.00;99.90
983;DHT22;480;48.124;11.578;2022-07-23T01:04:17;24.90;99.90
983;DHT22;480;48.124;11.578;2022-07-23T01:06:44;24.90;99.90
983;DHT22;480;48.124;11.578;2022-07-23T01:09:12;24.90;99.90
983;DHT22;480;48.124;11.578;2022-07-23T01:11:41;24.80;99.90
983;DHT22;480;48.124;11.578;2022-07-23T01:14:12;24.80;99.90
983;DHT22;480;48.124;11.578;2022-07-23T01:16:40;24.80;99.90
983;DHT22;480;48.124;11.578;2022-07-23T01:19:07;24.80;99.90
983;DHT22;480;48.124;11.578;2022-07-23T01:21:37;24.70;99.90
983;DHT22;480;48.124;11.578;2022-07-23T01:24:07;24.60;99.90
983;DHT22;480;48.124;11.578;2022-07-23T01:26:34;24.50;99.90
983;DHT22;480;48.124;11.578;2022-07-23T01:29:01;24.30;99.90
983;DHT22;480;48.124;11.578;2022-07-23T01:31:28;24.10;99.90
983;DHT22;480;48.124;11.578;2022-07-23T01:33:55;23.90;99.90
983;DHT22;480;48.124;11.578;2022-07-23T01:36:23;23.70;99.90
983;DHT22;480;48.124;11.578;2022-07-23T01:38:50;23.20;99.90
983;DHT22;480;48.124;11.578;2022-07-23T01:41:18;22.80;99.90
983;DHT22;480;48.124;11.578;2022-07-23T01:43:45;22.70;99.90
983;DHT22;480;48.124;11.578;2022-07-23T01:46:13;22.60;99.90
983;DHT22;480;48.124;11.578;2022-07-23T01:48:40;22.40;99.90
983;DHT22;480;48.124;11.578;2022-07-23T01:51:07;22.30;99.90
983;DHT22;480;48.124;11.578;2022-07-23T01:53:34;22.20;99.90
983;DHT22;480;48.124;11.578;2022-07-23T01:56:02;22.10;99.90
983;DHT22;480;48.124;11.578;2022-07-23T01:58:30;22.10;99.90
983;DHT22;480;48.124;11.578;2022-07-23T02:00:57;22.00;99.90
983;DHT22;480;48.124;11.578;2022-07-23T02:03:25;21.80;99.90
983;DHT22;480;48.124;11.578;2022-07-23T02:05:52;21.80;99.90
983;DHT22;480;48.124;11.578;2022-07-23T02:08:19;21.90;99.90
983;DHT22;480;48.124;11.578;2022-07-23T02:10:47;21.90;99.90
983;DHT22;480;48.124;11.578;2022-07-23T02:13:17;21.80;99.90
983;DHT22;480;48.124;11.578;2022-07-23T02:15:45;21.80;99.90
983;DHT22;480;48.124;11.578;2022-07-23T02:18:12;21.70;99.90
983;DHT22;480;48.124;11.578;2022-07-23T02:20:39;21.60;99.90
983;DHT22;480;48.124;11.578;2022-07-23T02:23:07;21.40;99.90
983;DHT22;480;48.124;11.578;2022-07-23T02:25:34;21.20;99.90
983;DHT22;480;48.124;11.578;2022-07-23T02:28:02;21.20;99.90
983;DHT22;480;48.124;11.578;2022-07-23T02:30:29;21.20;99.90
983;DHT22;480;48.124;11.578;2022-07-23T02:32:58;21.00;99.90
983;DHT22;480;48.124;11.578;2022-07-23T02:35:25;21.00;99.90
983;DHT22;480;48.124;11.578;2022-07-23T02:37:52;20.90;99.90
983;DHT22;480;48.124;11.578;2022-07-23T02:40:19;21.00;99.90
983;DHT22;480;48.124;11.578;2022-07-23T02:42:46;21.20;99.90
983;DHT22;480;48.124;11.578;2022-07-23T02:45:13;21.20;99.90
983;DHT22;480;48.124;11.578;2022-07-23T02:47:40;21.30;99.90
983;DHT22;480;48.124;11.578;2022-07-23T02:50:09;21.50;99.90
983;DHT22;480;48.124;11.578;2022-07-23T02:52:37;21.40;99.90
983;DHT22;480;48.124;11.578;2022-07-23T02:55:06;21.40;99.90
983;DHT22;480;48.124;11.578;2022-07-23T02:57:34;21.60;99.90
983;DHT22;480;48.124;11.578;2022-07-23T03:00:01;21.40;99.90
983;DHT22;480;48.124;11.578;2022-07-23T03:02:28;21.40;99.90
983;DHT22;480;48.124;11.578;2022-07-23T03:04:55;21.30;99.90
983;DHT22;480;48.124;11.578;2022-07-23T03:07:23;21.10;99.90
983;DHT22;480;48.124;11.578;2022-07-23T03:09:50;21.00;99.90
983;DHT22;480;48.124;11.578;2022-07-23T03:12:18;21.00;99.90
983;DHT22;480;48.124;11.578;2022-07-23T03:14:45;21.00;99.90
983;DHT22;480;48.124;11.578;2022-07-23T03:17:12;20.90;99.90
983;DHT22;480;48.124;11.578;2022-07-23T03:19:39;20.90;99.90
983;DHT22;480;48.124;11.578;2022-07-23T03:22:06;20.80;99.90
983;DHT22;480;48.124;11.578;2022-07-23T03:24:35;20.90;99.90
983;DHT22;480;48.124;11.578;2022-07-23T03:27:29;21.00;99.90
983;DHT22;480;48.124;11.578;2022-07-23T03:29:58;20.90;99.90
983;DHT22;480;48.124;11.578;2022-07-23T03:32:25;21.00;99.90
983;DHT22;480;48.124;11.578;2022-07-23T03:34:53;21.00;99.90
983;DHT22;480;48.124;11.578;2022-07-23T03:37:20;20.90;99.90
983;DHT22;480;48.124;11.578;2022-07-23T03:39:48;20.80;99.90
983;DHT22;480;48.124;11.578;2022-07-23T03:42:15;20.70;99.90
983;DHT22;480;48.124;11.578;2022-07-23T03:44:42;20.30;99.90
983;DHT22;480;48.124;11.578;2022-07-23T03:47:09;20.10;99.90
983;DHT22;480;48.124;11.578;2022-07-23T03:49:37;19.90;99.90
983;DHT22;480;48.124;11.578;2022-07-23T03:52:05;19.70;99.90
983;DHT22;480;48.124;11.578;2022-07-23T03:54:32;19.70;99.90
983;DHT22;480;48.124;11.578;2022-07-23T03:57:01;19.80;99.90
983;DHT22;480;48.124;11.578;2022-07-23T03:59:29;20.10;99.90
983;DHT22;480;48.124;11.578;2022-07-23T04:01:56;20.20;99.90
983;DHT22;480;48.124;11.578;2022-07-23T04:04:23;20.20;99.90
983;DHT22;480;48.124;11.578;2022-07-23T04:06:50;20.40;99.90
983;DHT22;480;48.124;11.578;2022-07-23T04:09:17;20.40;99.90
983;DHT22;480;48.124;11.578;2022-07-23T04:11:44;20.50;99.90
983;DHT22;480;48.124;11.578;2022-07-23T04:14:12;20.70;99.90
983;DHT22;480;48.124;11.578;2022-07-23T04:16:39;20.80;99.90
983;DHT22;480;48.124;11.578;2022-07-23T04:19:06;20.90;99.90
983;DHT22;480;48.124;11.578;2022-07-23T04:21:33;21.00;99.90
983;DHT22;480;48.124;11.578;2022-07-23T04:24:00;21.00;99.90
983;DHT22;480;48.124;11.578;2022-07-23T04:26:28;21.10;99.90
983;DHT22;480;48.124;11.578;2022-07-23T04:28:54;21.00;99.90
983;DHT22;480;48.124;11.578;2022-07-23T04:31:23;21.10;99.90
983;DHT22;480;48.124;11.578;2022-07-23T04:33:50;21.20;99.90
983;DHT22;480;48.124;11.578;2022-07-23T04:36:17;21.30;99.90
983;DHT22;480;48.124;11.578;2022-07-23T04:38:44;21.40;99.90
983;DHT22;480;48.124;11.578;2022-07-23T04:41:11;21.60;99.90
983;DHT22;480;48.124;11.578;2022-07-23T04:43:38;21.70;99.90
983;DHT22;480;48.124;11.578;2022-07-23T04:46:05;21.60;99.90
983;DHT22;480;48.124;11.578;2022-07-23T04:48:34;21.60;99.90
983;DHT22;480;48.124;11.578;2022-07-23T04:51:01;21.70;99.90
983;DHT22;480;48.124;11.578;2022-07-23T04:53:28;21.80;99.90
983;DHT22;480;48.124;11.578;2022-07-23T04:55:58;21.90;99.90
983;DHT22;480;48.124;11.578;2022-07-23T04:58:25;22.00;99.90
983;DHT22;480;48.124;11.578;2022-07-23T05:00:52;22.10;99.90
983;DHT22;480;48.124;11.578;2022-07-23T05:03:19;22.00;99.90
983;DHT22;480;48.124;11.578;2022-07-23T05:05:49;22.00;99.90
983;DHT22;480;48.124;11.578;2022-07-23T05:08:16;22.10;99.90
983;DHT22;480;48.124;11.578;2022-07-23T05:10:43;22.00;99.90
983;DHT22;480;48.124;11.578;2022-07-23T05:13:11;21.90;99.90
983;DHT22;480;48.124;11.578;2022-07-23T05:15:38;21.90;99.90
983;DHT22;480;48.124;11.578;2022-07-23T05:18:05;22.00;99.90
983;DHT22;480;48.124;11.578;2022-07-23T05:20:32;22.20;99.90
983;DHT22;480;48.124;11.578;2022-07-23T05:23:00;22.10;99.90
983;DHT22;480;48.124;11.578;2022-07-23T05:25:27;22.00;99.90
983;DHT22;480;48.124;11.578;2022-07-23T05:27:54;22.00;99.90
983;DHT22;480;48.124;11.578;2022-07-23T05:30:21;22.00;99.90
983;DHT22;480;48.124;11.578;2022-07-23T05:32:48;22.10;99.90
983;DHT22;480;48.124;11.578;2022-07-23T05:35:16;22.10;99.90
983;DHT22;480;48.124;11.578;2022-07-23T05:37:44;22.10;99.90
983;DHT22;480;48.124;11.578;2022-07-23T05:40:13;22.10;99.90
983;DHT22;480;48.124;11.578;2022-07-23T05:42:41;22.10;99.90
983;DHT22;480;48.124;11.578;2022-07-23T05:45:09;22.00;99.90
983;DHT22;480;48.124;11.578;2022-07-23T05:47:41;22.00;99.90
983;DHT22;480;48.124;11.578;2022-07-23T05:50:08;21.90;99.90
983;DHT22;480;48.124;11.578;2022-07-23T05:52:35;21.80;99.90
983;DHT22;480;48.124;11.578;2022-07-23T05:55:03;21.70;99.90
983;DHT22;480;48.124;11.578;2022-07-23T05:57:31;21.90;99.90
983;DHT22;480;48.124;11.578;2022-07-23T05:59:58;22.00;99.90
983;DHT22;480;48.124;11.578;2022-07-23T06:02:25;22.00;99.90
983;DHT22;480;48.124;11.578;2022-07-23T06:04:53;22.00;99.90
983;DHT22;480;48.124;11.578;2022-07-23T06:07:20;22.10;99.90
983;DHT22;480;48.124;11.578;2022-07-23T06:09:47;22.10;99.90
983;DHT22;480;48.124;11.578;2022-07-23T06:12:15;22.30;99.90
983;DHT22;480;48.124;11.578;2022-07-23T06:14:43;22.20;99.90
983;DHT22;480;48.124;11.578;2022-07-23T06:17:14;22.10;99.90
983;DHT22;480;48.124;11.578;2022-07-23T06:19:44;22.00;99.90
983;DHT22;480;48.124;11.578;2022-07-23T06:22:11;21.70;99.90
983;DHT22;480;48.124;11.578;2022-07-23T06:24:38;21.50;99.90
983;DHT22;480;48.124;11.578;2022-07-23T06:27:05;21.40;99.90
983;DHT22;480;48.124;11.578;2022-07-23T06:29:32;21.30;99.90
983;DHT22;480;48.124;11.578;2022-07-23T06:32:02;21.10;99.90
983;DHT22;480;48.124;11.578;2022-07-23T06:34:29;20.90;99.90
983;DHT22;480;48.124;11.578;2022-07-23T06:36:56;21.00;99.90
983;DHT22;480;48.124;11.578;2022-07-23T06:39:23;21.20;99.90
983;DHT22;480;48.124;11.578;2022-07-23T06:41:50;21.40;99.90
983;DHT22;480;48.124;11.578;2022-07-23T06:44:18;21.50;99.90
983;DHT22;480;48.124;11.578;2022-07-23T06:46:45;21.40;99.90
983;DHT22;480;48.124;11.578;2022-07-23T06:49:13;21.50;99.90
983;DHT22;480;48.124;11.578;2022-07-23T06:51:40;21.60;99.90
983;DHT22;480;48.124;11.578;2022-07-23T06:54:07;21.60;99.90
983;DHT22;480;48.124;11.578;2022-07-23T06:56:35;21.70;99.90
983;DHT22;480;48.124;11.578;2022-07-23T06:59:02;21.80;99.90
983;DHT22;480;48.124;11.578;2022-07-23T07:01:29;21.90;99.90
983;DHT22;480;48.124;11.578;2022-07-23T07:03:56;21.90;99.90
983;DHT22;480;48.124;11.578;2022-07-23T07:06:24;22.00;99.90
983;DHT22;480;48.124;11.578;2022-07-23T07:08:54;21.90;99.90
983;DHT22;480;48.124;11.578;2022-07-23T07:11:21;22.00;99.90
983;DHT22;480;48.124;11.578;2022-07-23T07:13:49;22.00;99.90
983;DHT22;480;48.124;11.578;2022-07-23T07:16:17;22.10;99.90
983;DHT22;480;48.124;11.578;2022-07-23T07:18:44;22.30;99.90
983;DHT22;480;48.124;11.578;2022-07-23T07:21:11;22.30;99.90
983;DHT22;480;48.124;11.578;2022-07-23T07:23:41;22.30;99.90
983;DHT22;480;48.124;11.578;2022-07-23T07:26:08;22.40;99.90
983;DHT22;480;48.124;11.578;2022-07-23T07:28:37;22.60;99.90
983;DHT22;480;48.124;11.578;2022-07-23T07:31:04;22.60;99.90
983;DHT22;480;48.124;11.578;2022-07-23T07:33:31;22.80;99.90
983;DHT22;480;48.124;11.578;2022-07-23T07:35:58;22.80;99.90
983;DHT22;480;48.124;11.578;2022-07-23T07:38:26;22.90;99.90
983;DHT22;480;48.124;11.578;2022-07-23T07:40:54;22.80;99.90
983;DHT22;480;48.124;11.578;2022-07-23T07:43:21;22.80;99.90
983;DHT22;480;48.124;11.578;2022-07-23T07:45:48;22.70;99.90
983;DHT22;480;48.124;11.578;2022-07-23T07:48:15;22.70;99.90
983;DHT22;480;48.124;11.578;2022-07-23T07:50:42;22.70;99.90
983;DHT22;480;48.124;11.578;2022-07-23T07:53:09;22.80;99.90
983;DHT22;480;48.124;11.578;2022-07-23T07:55:37;22.80;99.90
983;DHT22;480;48.124;11.578;2022-07-23T07:58:05;22.90;99.90
983;DHT22;480;48.124;11.578;2022-07-23T08:00:32;22.80;99.90
983;DHT22;480;48.124;11.578;2022-07-23T08:02:59;22.70;99.90
983;DHT22;480;48.124;11.578;2022-07-23T08:05:29;22.60;99.90
983;DHT22;480;48.124;11.578;2022-07-23T08:07:58;22.60;99.90
983;DHT22;480;48.124;11.578;2022-07-23T08:10:26;22.70;99.90
983;DHT22;480;48.124;11.578;2022-07-23T08:12:56;22.70;99.90
983;DHT22;480;48.124;11.578;2022-07-23T08:15:25;22.80;99.90
983;DHT22;480;48.124;11.578;2022-07-23T08:17:53;22.80;99.90
983;DHT22;480;48.124;11.578;2022-07-23T08:20:21;22.90;99.90
983;DHT22;480;48.124;11.578;2022-07-23T08:22:50;22.80;99.90
983;DHT22;480;48.124;11.578;2022-07-23T08:25:21;22.80;99.90
983;DHT22;480;48.124;11.578;2022-07-23T08:27:48;22.70;99.90
983;DHT22;480;48.124;11.578;2022-07-23T08:30:16;22.70;99.90
983;DHT22;480;48.124;11.578;2022-07-23T08:32:55;22.80;99.90
983;DHT22;480;48.124;11.578;2022-07-23T08:35:26;22.80;99.90
983;DHT22;480;48.124;11.578;2022-07-23T08:37:53;22.80;99.90
983;DHT22;480;48.124;11.578;2022-07-23T08:40:20;23.00;99.90
983;DHT22;480;48.124;11.578;2022-07-23T08:42:48;23.00;99.90
983;DHT22;480;48.124;11.578;2022-07-23T08:45:18;22.90;99.90
983;DHT22;480;48.124;11.578;2022-07-23T08:47:48;23.00;99.90
983;DHT22;480;48.124;11.578;2022-07-23T08:50:17;23.20;99.90
983;DHT22;480;48.124;11.578;2022-07-23T08:52:44;23.20;99.90
983;DHT22;480;48.124;11.578;2022-07-23T08:55:12;23.20;99.90
983;DHT22;480;48.124;11.578;2022-07-23T08:57:40;23.30;99.90
983;DHT22;480;48.124;11.578;2022-07-23T09:00:09;23.40;99.90
983;DHT22;480;48.124;11.578;2022-07-23T09:02:39;23.50;99.90
983;DHT22;480;48.124;11.578;2022-07-23T09:05:07;23.30;99.90
983;DHT22;480;48.124;11.578;2022-07-23T09:07:38;23.50;99.90
983;DHT22;480;48.124;11.578;2022-07-23T09:10:24;23.60;99.90
983;DHT22;480;48.124;11.578;2022-07-23T09:12:52;23.70;99.90
983;DHT22;480;48.124;11.578;2022-07-23T09:15:19;23.60;99.90
983;DHT22;480;48.124;11.578;2022-07-23T09:17:46;23.70;99.90
983;DHT22;480;48.124;11.578;2022-07-23T09:20:15;23.70;99.90
983;DHT22;480;48.124;11.578;2022-07-23T09:22:46;23.80;99.90
983;DHT22;480;48.124;11.578;2022-07-23T09:25:15;24.00;99.90
983;DHT22;480;48.124;11.578;2022-07-23T09:28:01;24.20;99.90
983;DHT22;480;48.124;11.578;2022-07-23T09:30:30;24.40;99.90
983;DHT22;480;48.124;11.578;2022-07-23T09:33:06;24.40;99.90
983;DHT22;480;48.124;11.578;2022-07-23T09:35:48;24.50;99.90
983;DHT22;480;48.124;11.578;2022-07-23T09:38:18;24.70;99.90
983;DHT22;480;48.124;11.578;2022-07-23T09:40:46;24.70;99.90
983;DHT22;480;48.124;11.578;2022-07-23T09:43:26;24.90;99.90
983;DHT22;480;48.124;11.578;2022-07-23T09:45:54;25.20;99.90
983;DHT22;480;48.124;11.578;2022-07-23T09:48:41;25.30;99.90
983;DHT22;480;48.124;11.578;2022-07-23T09:51:08;25.50;99.90
983;DHT22;480;48.124;11.578;2022-07-23T09:53:37;25.50;99.90
983;DHT22;480;48.124;11.578;2022-07-23T09:56:05;25.50;99.90
983;DHT22;480;48.124;11.578;2022-07-23T09:58:32;25.70;99.90
983;DHT22;480;48.124;11.578;2022-07-23T10:01:00;26.00;99.90
983;DHT22;480;48.124;11.578;2022-07-23T10:03:28;26.30;99.90
983;DHT22;480;48.124;11.578;2022-07-23T10:05:55;26.40;99.90
983;DHT22;480;48.124;11.578;2022-07-23T10:08:24;26.30;99.90
983;DHT22;480;48.124;11.578;2022-07-23T10:10:54;26.30;99.90
983;DHT22;480;48.124;11.578;2022-07-23T10:13:22;26.50;99.90
983;DHT22;480;48.124;11.578;2022-07-23T10:16:08;26.50;99.90
983;DHT22;480;48.124;11.578;2022-07-23T10:18:36;26.70;99.90
983;DHT22;480;48.124;11.578;2022-07-23T10:21:07;26.90;99.90
983;DHT22;480;48.124;11.578;2022-07-23T10:23:37;27.10;99.90
983;DHT22;480;48.124;11.578;2022-07-23T10:26:15;27.10;99.90
983;DHT22;480;48.124;11.578;2022-07-23T10:29:01;27.10;99.90
983;DHT22;480;48.124;11.578;2022-07-23T10:31:39;27.20;99.90
983;DHT22;480;48.124;11.578;2022-07-23T10:34:14;27.30;99.90
983;DHT22;480;48.124;11.578;2022-07-23T10:36:49;27.40;99.90
983;DHT22;480;48.124;11.578;2022-07-23T10:39:21;27.50;99.90
983;DHT22;480;48.124;11.578;2022-07-23T10:41:51;27.60;99.90
983;DHT22;480;48.124;11.578;2022-07-23T10:44:20;27.70;99.90
983;DHT22;480;48.124;11.578;2022-07-23T10:46:57;27.60;99.90
983;DHT22;480;48.124;11.578;2022-07-23T10:49:38;27.50;99.90
983;DHT22;480;48.124;11.578;2022-07-23T10:52:23;27.40;99.90
983;DHT22;480;48.124;11.578;2022-07-23T10:54:54;27.30;99.90
983;DHT22;480;48.124;11.578;2022-07-23T10:57:29;27.30;99.90
983;DHT22;480;48.124;11.578;2022-07-23T11:00:20;27.30;99.90
983;DHT22;480;48.124;11.578;2022-07-23T11:02:49;27.20;99.90
983;DHT22;480;48.124;11.578;2022-07-23T11:05:18;27.40;99.90
983;DHT22;480;48.124;11.578;2022-07-23T11:08:12;27.50;99.90
983;DHT22;480;48.124;11.578;2022-07-23T11:10:43;27.50;99.90
983;DHT22;480;48.124;11.578;2022-07-23T11:13:32;27.30;99.90
983;DHT22;480;48.124;11.578;2022-07-23T11:16:16;27.20;99.90
983;DHT22;480;48.124;11.578;2022-07-23T11:18:55;27.20;99.90
983;DHT22;480;48.124;11.578;2022-07-23T11:21:44;27.20;99.90
983;DHT22;480;48.124;11.578;2022-07-23T11:24:12;27.10;99.90
983;DHT22;480;48.124;11.578;2022-07-23T11:26:45;27.10;99.90
983;DHT22;480;48.124;11.578;2022-07-23T11:32:29;26.80;99.90
983;DHT22;480;48.124;11.578;2022-07-23T11:34:58;26.60;99.90
983;DHT22;480;48.124;11.578;2022-07-23T11:37:35;26.50;99.90
983;DHT22;480;48.124;11.578;2022-07-23T11:40:05;26.50;99.90
983;DHT22;480;48.124;11.578;2022-07-23T11:42:35;26.40;99.90
983;DHT22;480;48.124;11.578;2022-07-23T11:45:03;26.30;99.90
983;DHT22;480;48.124;11.578;2022-07-23T11:47:32;26.30;99.90
983;DHT22;480;48.124;11.578;2022-07-23T11:50:01;26.30;99.90
983;DHT22;480;48.124;11.578;2022-07-23T11:52:29;26.40;99.90
983;DHT22;480;48.124;11.578;2022-07-23T11:54:58;26.40;99.90
983;DHT22;480;48.124;11.578;2022-07-23T11:57:27;26.30;99.90
983;DHT22;480;48.124;11.578;2022-07-23T11:59:56;26.30;99.90
983;DHT22;480;48.124;11.578;2022-07-23T12:02:23;26.30;99.90
983;DHT22;480;48.124;11.578;2022-07-23T12:04:53;26.30;99.90
983;DHT22;480;48.124;11.578;2022-07-23T12:07:29;26.20;99.90
983;DHT22;480;48.124;11.578;2022-07-23T12:09:57;26.20;99.90
983;DHT22;480;48.124;11.578;2022-07-23T12:12:26;26.20;99.90
983;DHT22;480;48.124;11.578;2022-07-23T12:14:55;26.20;99.90
983;DHT22;480;48.124;11.578;2022-07-23T12:17:28;26.20;99.90
983;DHT22;480;48.124;11.578;2022-07-23T12:19:58;26.10;99.90
983;DHT22;480;48.124;11.578;2022-07-23T12:22:26;26.10;99.90
983;DHT22;480;48.124;11.578;2022-07-23T12:25:01;26.10;99.90
983;DHT22;480;48.124;11.578;2022-07-23T12:27:30;26.20;99.90
983;DHT22;480;48.124;11.578;2022-07-23T12:29:57;25.90;99.90
983;DHT22;480;48.124;11.578;2022-07-23T12:32:26;25.80;99.90
983;DHT22;480;48.124;11.578;2022-07-23T12:35:04;25.80;99.90
983;DHT22;480;48.124;11.578;2022-07-23T12:37:33;25.80;99.90
983;DHT22;480;48.124;11.578;2022-07-23T12:40:19;25.80;99.90
983;DHT22;480;48.124;11.578;2022-07-23T12:42:47;25.80;99.90
983;DHT22;480;48.124;11.578;2022-07-23T12:45:15;25.80;99.90
983;DHT22;480;48.124;11.578;2022-07-23T12:48:03;25.70;99.90
983;DHT22;480;48.124;11.578;2022-07-23T12:50:39;25.70;99.90
983;DHT22;480;48.124;11.578;2022-07-23T12:53:08;25.60;99.90
983;DHT22;480;48.124;11.578;2022-07-23T12:55:36;25.70;99.90
983;DHT22;480;48.124;11.578;2022-07-23T12:58:08;25.70;99.90
983;DHT22;480;48.124;11.578;2022-07-23T13:00:57;25.70;99.90
983;DHT22;480;48.124;11.578;2022-07-23T13:03:36;25.60;99.90
983;DHT22;480;48.124;11.578;2022-07-23T13:06:07;25.60;99.90
983;DHT22;480;48.124;11.578;2022-07-23T13:08:36;25.60;99.90
983;DHT22;480;48.124;11.578;2022-07-23T13:11:05;25.60;99.90
983;DHT22;480;48.124;11.578;2022-07-23T13:13:34;25.70;99.90
983;DHT22;480;48.124;11.578;2022-07-23T13:16:02;25.70;99.90
983;DHT22;480;48.124;11.578;2022-07-23T13:18:30;25.80;99.90
983;DHT22;480;48.124;11.578;2022-07-23T13:20:57;25.80;99.90
983;DHT22;480;48.124;11.578;2022-07-23T13:23:26;25.90;99.90
983;DHT22;480;48.124;11.578;2022-07-23T13:25:54;25.90;99.90
983;DHT22;480;48.124;11.578;2022-07-23T13:28:22;25.90;99.90
983;DHT22;480;48.124;11.578;2022-07-23T13:30:51;25.90;99.90
983;DHT22;480;48.124;11.578;2022-07-23T13:33:19;25.90;99.90
983;DHT22;480;48.124;11.578;2022-07-23T13:35:46;25.80;99.90
983;DHT22;480;48.124;11.578;2022-07-23T13:38:17;25.80;99.90
983;DHT22;480;48.124;11.578;2022-07-23T13:40:47;25.80;99.90
983;DHT22;480;48.124;11.578;2022-07-23T13:43:17;25.70;99.90
983;DHT22;480;48.124;11.578;2022-07-23T13:45:48;25.80;99.90
983;DHT22;480;48.124;11.578;2022-07-23T13:48:16;25.90;99.90
983;DHT22;480;48.124;11.578;2022-07-23T13:50:43;26.20;99.90
983;DHT22;480;48.124;11.578;2022-07-23T13:53:12;26.30;99.90
983;DHT22;480;48.124;11.578;2022-07-23T13:55:40;26.40;99.90
983;DHT22;480;48.124;11.578;2022-07-23T13:58:09;26.30;99.90
983;DHT22;480;48.124;11.578;2022-07-23T14:00:38;26.30;99.90
983;DHT22;480;48.124;11.578;2022-07-23T14:03:05;26.10;99.90
983;DHT22;480;48.124;11.578;2022-07-23T14:05:32;26.00;99.90
983;DHT22;480;48.124;11.578;2022-07-23T14:07:59;26.10;99.90
983;DHT22;480;48.124;11.578;2022-07-23T14:10:27;26.10;99.90
983;DHT22;480;48.124;11.578;2022-07-23T14:12:54;25.90;99.90
983;DHT22;480;48.124;11.578;2022-07-23T14:15:25;25.90;99.90
983;DHT22;480;48.124;11.578;2022-07-23T14:17:52;25.90;99.90
983;DHT22;480;48.124;11.578;2022-07-23T14:20:21;25.70;99.90
983;DHT22;480;48.124;11.578;2022-07-23T14:22:49;25.70;99.90
983;DHT22;480;48.124;11.578;2022-07-23T14:25:16;25.60;99.90
983;DHT22;480;48.124;11.578;2022-07-23T14:27:44;25.50;99.90
983;DHT22;480;48.124;11.578;2022-07-23T14:30:12;25.60;99.90
983;DHT22;480;48.124;11.578;2022-07-23T14:32:42;25.60;99.90
983;DHT22;480;48.124;11.578;2022-07-23T14:35:10;25.60;99.90
983;DHT22;480;48.124;11.578;2022-07-23T14:37:38;25.60;99.90
983;DHT22;480;48.124;11.578;2022-07-23T14:40:06;25.60;99.90
983;DHT22;480;48.124;11.578;2022-07-23T14:42:34;25.50;99.90
983;DHT22;480;48.124;11.578;2022-07-23T14:45:02;25.50;99.90
983;DHT22;480;48.124;11.578;2022-07-23T14:47:31;25.50;99.90
983;DHT22;480;48.124;11.578;2022-07-23T14:49:59;25.60;99.90
983;DHT22;480;48.124;11.578;2022-07-23T14:52:26;25.60;99.90
983;DHT22;480;48.124;11.578;2022-07-23T14:54:53;25.80;99.90
983;DHT22;480;48.124;11.578;2022-07-23T14:57:21;25.90;99.90
983;DHT22;480;48.124;11.578;2022-07-23T14:59:48;26.10;99.90
983;DHT22;480;48.124;11.578;2022-07-23T15:02:15;26.00;99.90
983;DHT22;480;48.124;11.578;2022-07-23T15:04:42;26.00;99.90
983;DHT22;480;48.124;11.578;2022-07-23T15:07:11;26.10;99.90
983;DHT22;480;48.124;11.578;2022-07-23T15:09:38;26.10;99.90
983;DHT22;480;48.124;11.578;2022-07-23T15:12:06;26.00;99.90
983;DHT22;480;48.124;11.578;2022-07-23T15:14:38;26.00;99.90
983;DHT22;480;48.124;11.578;2022-07-23T15:17:08;26.10;99.90
983;DHT22;480;48.124;11.578;2022-07-23T15:19:36;26.20;99.90
983;DHT22;480;48.124;11.578;2022-07-23T15:22:03;26.30;99.90
983;DHT22;480;48.124;11.578;2022-07-23T15:24:32;26.70;99.90
983;DHT22;480;48.124;11.578;2022-07-23T15:26:59;26.90;99.90
983;DHT22;480;48.124;11.578;2022-07-23T15:29:26;27.20;99.90
983;DHT22;480;48.124;11.578;2022-07-23T15:31:53;27.20;99.90
983;DHT22;480;48.124;11.578;2022-07-23T15:34:20;27.20;99.90
983;DHT22;480;48.124;11.578;2022-07-23T15:36:47;27.30;99.90
983;DHT22;480;48.124;11.578;2022-07-23T15:39:17;27.50;99.90
983;DHT22;480;48.124;11.578;2022-07-23T15:41:45;27.60;99.90
983;DHT22;480;48.124;11.578;2022-07-23T15:44:12;27.40;99.90
983;DHT22;480;48.124;11.578;2022-07-23T15:46:39;27.40;99.90
983;DHT22;480;48.124;11.578;2022-07-23T15:49:06;27.80;99.90
983;DHT22;480;48.124;11.578;2022-07-23T15:51:35;28.20;99.90
983;DHT22;480;48.124;11.578;2022-07-23T15:54:02;28.50;99.90
983;DHT22;480;48.124;11.578;2022-07-23T15:56:29;28.70;99.90
983;DHT22;480;48.124;11.578;2022-07-23T15:58:57;28.90;99.90
983;DHT22;480;48.124;11.578;2022-07-23T16:01:24;29.20;99.90
983;DHT22;480;48.124;11.578;2022-07-23T16:03:55;29.20;99.90
983;DHT22;480;48.124;11.578;2022-07-23T16:06:25;29.30;99.90
983;DHT22;480;48.124;11.578;2022-07-23T16:08:53;29.30;99.90
983;DHT22;480;48.124;11.578;2022-07-23T16:11:21;29.10;99.90
983;DHT22;480;48.124;11.578;2022-07-23T16:13:48;29.00;99.90
983;DHT22;480;48.124;11.578;2022-07-23T16:16:16;29.00;99.90
983;DHT22;480;48.124;11.578;2022-07-23T16:18:43;28.90;99.90
983;DHT22;480;48.124;11.578;2022-07-23T16:21:13;28.70;99.90
983;DHT22;480;48.124;11.578;2022-07-23T16:23:40;28.50;99.90
983;DHT22;480;48.124;11.578;2022-07-23T16:26:07;28.50;99.90
983;DHT22;480;48.124;11.578;2022-07-23T16:28:34;28.20;99.90
983;DHT22;480;48.124;11.578;2022-07-23T16:31:01;27.90;99.90